sensor_id;sensor_type;location;lat;lon;timestamp;P1;durP1;ratioP1;P2;durP2;ratioP2
74541;SDS011;63015;45.378;20.360;2023-03-03T00:01:55;25.27;;;10.68;;
74541;SDS011;63015;45.378;20.360;2023-03-03T00:03:56;36.40;;;16.50;;
74541;SDS011;63015;45.378;20.360;2023-03-03T00:05:56;23.70;;;10.32;;
74541;SDS011;63015;45.378;20.360;2023-03-03T00:07:58;28.35;;;13.30;;
74541;SDS011;63015;45.378;20.360;2023-03-03T00:09:59;29.60;;;15.43;;
74541;SDS011;63015;45.378;20.360;2023-03-03T00:11:59;26.05;;;11.98;;
74541;SDS011;63015;45.378;20.360;2023-03-03T00:14:21;29.02;;;13.65;;
74541;SDS011;63015;45.378;20.360;2023-03-03T00:16:36;29.35;;;14.13;;
74541;SDS011;63015;45.378;20.360;2023-03-03T00:18:40;25.30;;;10.35;;
74541;SDS011;63015;45.378;20.360;2023-03-03T00:20:45;25.63;;;13.90;;
74541;SDS011;63015;45.378;20.360;2023-03-03T00:22:48;30.98;;;12.85;;
74541;SDS011;63015;45.378;20.360;2023-03-03T00:24:49;24.60;;;10.15;;
74541;SDS011;63015;45.378;20.360;2023-03-03T00:26:53;29.70;;;14.32;;
74541;SDS011;63015;45.378;20.360;2023-03-03T00:28:55;36.70;;;16.67;;
74541;SDS011;63015;45.378;20.360;2023-03-03T00:30:59;28.20;;;13.35;;
74541;SDS011;63015;45.378;20.360;2023-03-03T00:33:02;31.17;;;15.88;;
74541;SDS011;63015;45.378;20.360;2023-03-03T00:35:32;28.70;;;11.65;;
74541;SDS011;63015;45.378;20.360;2023-03-03T00:37:38;28.63;;;12.77;;
74541;SDS011;63015;45.378;20.360;2023-03-03T00:39:40;27.10;;;13.18;;
74541;SDS011;63015;45.378;20.360;2023-03-03T00:41:40;23.30;;;11.50;;
74541;SDS011;63015;45.378;20.360;2023-03-03T00:43:41;27.98;;;12.55;;
74541;SDS011;63015;45.378;20.360;2023-03-03T00:46:00;26.17;;;11.73;;
74541;SDS011;63015;45.378;20.360;2023-03-03T00:48:06;32.03;;;14.32;;
74541;SDS011;63015;45.378;20.360;2023-03-03T00:52:27;22.42;;;11.00;;
74541;SDS011;63015;45.378;20.360;2023-03-03T00:54:28;28.50;;;12.65;;
74541;SDS011;63015;45.378;20.360;2023-03-03T00:56:29;24.30;;;12.50;;
74541;SDS011;63015;45.378;20.360;2023-03-03T00:58:30;26.85;;;11.98;;
74541;SDS011;63015;45.378;20.360;2023-03-03T01:00:31;28.13;;;13.82;;
74541;SDS011;63015;45.378;20.360;2023-03-03T01:02:32;29.85;;;13.73;;
74541;SDS011;63015;45.378;20.360;2023-03-03T01:04:33;28.15;;;13.70;;
74541;SDS011;63015;45.378;20.360;2023-03-03T01:06:34;22.40;;;9.20;;
74541;SDS011;63015;45.378;20.360;2023-03-03T01:08:34;25.17;;;12.85;;
74541;SDS011;63015;45.378;20.360;2023-03-03T01:10:37;22.73;;;11.63;;
74541;SDS011;63015;45.378;20.360;2023-03-03T01:12:41;23.50;;;10.85;;
74541;SDS011;63015;45.378;20.360;2023-03-03T01:14:41;26.17;;;11.68;;
74541;SDS011;63015;45.378;20.360;2023-03-03T01:16:44;21.10;;;9.70;;
74541;SDS011;63015;45.378;20.360;2023-03-03T01:18:45;19.60;;;10.75;;
74541;SDS011;63015;45.378;20.360;2023-03-03T01:20:45;25.48;;;10.60;;
74541;SDS011;63015;45.378;20.360;2023-03-03T01:22:46;22.00;;;10.02;;
74541;SDS011;63015;45.378;20.360;2023-03-03T01:24:46;27.35;;;12.55;;
74541;SDS011;63015;45.378;20.360;2023-03-03T01:26:47;25.95;;;12.15;;
74541;SDS011;63015;45.378;20.360;2023-03-03T01:28:47;31.67;;;14.10;;
74541;SDS011;63015;45.378;20.360;2023-03-03T01:30:50;29.13;;;13.23;;
74541;SDS011;63015;45.378;20.360;2023-03-03T01:32:51;26.17;;;12.55;;
74541;SDS011;63015;45.378;20.360;2023-03-03T01:34:52;26.25;;;12.50;;
74541;SDS011;63015;45.378;20.360;2023-03-03T01:36:53;30.48;;;13.77;;
74541;SDS011;63015;45.378;20.360;2023-03-03T01:38:53;26.17;;;13.05;;
74541;SDS011;63015;45.378;20.360;2023-03-03T01:40:55;25.98;;;12.43;;
74541;SDS011;63015;45.378;20.360;2023-03-03T01:42:58;29.50;;;12.88;;
74541;SDS011;63015;45.378;20.360;2023-03-03T01:47:20;18.48;;;8.15;;
74541;SDS011;63015;45.378;20.360;2023-03-03T01:49:37;25.65;;;13.25;;
74541;SDS011;63015;45.378;20.360;2023-03-03T01:51:48;24.33;;;12.40;;
74541;SDS011;63015;45.378;20.360;2023-03-03T01:53:55;31.77;;;13.50;;
74541;SDS011;63015;45.378;20.360;2023-03-03T01:55:58;23.70;;;10.00;;
74541;SDS011;63015;45.378;20.360;2023-03-03T01:58:08;24.77;;;11.30;;
74541;SDS011;63015;45.378;20.360;2023-03-03T02:00:13;34.50;;;15.35;;
74541;SDS011;63015;45.378;20.360;2023-03-03T02:02:14;23.13;;;10.32;;
74541;SDS011;63015;45.378;20.360;2023-03-03T02:04:16;23.02;;;10.23;;
74541;SDS011;63015;45.378;20.360;2023-03-03T02:06:19;31.05;;;13.90;;
74541;SDS011;63015;45.378;20.360;2023-03-03T02:08:25;29.67;;;13.73;;
74541;SDS011;63015;45.378;20.360;2023-03-03T02:10:34;28.88;;;13.18;;
74541;SDS011;63015;45.378;20.360;2023-03-03T02:12:37;30.85;;;14.15;;
74541;SDS011;63015;45.378;20.360;2023-03-03T02:14:38;31.42;;;14.27;;
74541;SDS011;63015;45.378;20.360;2023-03-03T02:16:39;29.63;;;12.77;;
74541;SDS011;63015;45.378;20.360;2023-03-03T02:18:40;29.48;;;13.20;;
74541;SDS011;63015;45.378;20.360;2023-03-03T02:20:57;35.50;;;15.40;;
74541;SDS011;63015;45.378;20.360;2023-03-03T02:25:10;28.27;;;13.48;;
74541;SDS011;63015;45.378;20.360;2023-03-03T02:27:19;28.15;;;13.63;;
74541;SDS011;63015;45.378;20.360;2023-03-03T02:29:20;24.48;;;12.45;;
74541;SDS011;63015;45.378;20.360;2023-03-03T02:31:21;28.90;;;13.13;;
74541;SDS011;63015;45.378;20.360;2023-03-03T02:33:23;29.27;;;12.93;;
74541;SDS011;63015;45.378;20.360;2023-03-03T02:35:26;30.77;;;13.98;;
74541;SDS011;63015;45.378;20.360;2023-03-03T02:37:29;29.05;;;13.07;;
74541;SDS011;63015;45.378;20.360;2023-03-03T02:39:31;31.70;;;13.25;;
74541;SDS011;63015;45.378;20.360;2023-03-03T02:41:33;27.50;;;12.00;;
74541;SDS011;63015;45.378;20.360;2023-03-03T02:45:58;33.00;;;15.63;;
74541;SDS011;63015;45.378;20.360;2023-03-03T02:47:59;30.35;;;13.25;;
74541;SDS011;63015;45.378;20.360;2023-03-03T02:49:59;27.05;;;12.35;;
74541;SDS011;63015;45.378;20.360;2023-03-03T02:52:00;24.02;;;11.55;;
74541;SDS011;63015;45.378;20.360;2023-03-03T02:56:07;25.98;;;11.57;;
74541;SDS011;63015;45.378;20.360;2023-03-03T02:58:08;27.92;;;13.30;;
74541;SDS011;63015;45.378;20.360;2023-03-03T03:00:09;27.42;;;12.77;;
74541;SDS011;63015;45.378;20.360;2023-03-03T03:02:10;26.30;;;12.55;;
74541;SDS011;63015;45.378;20.360;2023-03-03T03:04:12;28.88;;;12.65;;
74541;SDS011;63015;45.378;20.360;2023-03-03T03:06:18;28.67;;;12.80;;
74541;SDS011;63015;45.378;20.360;2023-03-03T03:08:19;31.98;;;13.95;;
74541;SDS011;63015;45.378;20.360;2023-03-03T03:10:20;29.70;;;14.32;;
74541;SDS011;63015;45.378;20.360;2023-03-03T03:12:21;31.33;;;14.95;;
74541;SDS011;63015;45.378;20.360;2023-03-03T03:14:25;35.90;;;15.25;;
74541;SDS011;63015;45.378;20.360;2023-03-03T03:16:27;26.05;;;11.50;;
74541;SDS011;63015;45.378;20.360;2023-03-03T03:18:28;27.58;;;13.07;;
74541;SDS011;63015;45.378;20.360;2023-03-03T03:20:30;32.50;;;13.43;;
74541;SDS011;63015;45.378;20.360;2023-03-03T03:22:31;25.45;;;12.05;;
74541;SDS011;63015;45.378;20.360;2023-03-03T03:24:31;25.83;;;11.55;;
74541;SDS011;63015;45.378;20.360;2023-03-03T03:26:36;31.02;;;12.35;;
74541;SDS011;63015;45.378;20.360;2023-03-03T03:28:37;29.52;;;12.90;;
74541;SDS011;63015;45.378;20.360;2023-03-03T03:30:39;25.45;;;11.40;;
74541;SDS011;63015;45.378;20.360;2023-03-03T03:32:40;29.38;;;13.38;;
74541;SDS011;63015;45.378;20.360;2023-03-03T03:34:42;24.65;;;12.07;;
74541;SDS011;63015;45.378;20.360;2023-03-03T03:36:44;23.17;;;12.15;;
74541;SDS011;63015;45.378;20.360;2023-03-03T03:38:46;26.33;;;12.35;;
74541;SDS011;63015;45.378;20.360;2023-03-03T03:40:47;30.58;;;13.10;;
74541;SDS011;63015;45.378;20.360;2023-03-03T03:42:48;27.30;;;12.43;;
74541;SDS011;63015;45.378;20.360;2023-03-03T03:44:48;29.80;;;14.00;;
74541;SDS011;63015;45.378;20.360;2023-03-03T03:46:50;29.30;;;13.82;;
74541;SDS011;63015;45.378;20.360;2023-03-03T03:48:51;27.38;;;11.57;;
74541;SDS011;63015;45.378;20.360;2023-03-03T03:50:53;29.17;;;11.88;;
74541;SDS011;63015;45.378;20.360;2023-03-03T03:52:56;28.42;;;13.00;;
74541;SDS011;63015;45.378;20.360;2023-03-03T03:54:57;27.40;;;12.57;;
74541;SDS011;63015;45.378;20.360;2023-03-03T03:56:57;30.58;;;12.50;;
74541;SDS011;63015;45.378;20.360;2023-03-03T03:58:59;30.30;;;13.38;;
74541;SDS011;63015;45.378;20.360;2023-03-03T04:01:04;24.70;;;11.30;;
74541;SDS011;63015;45.378;20.360;2023-03-03T04:03:09;28.83;;;12.55;;
74541;SDS011;63015;45.378;20.360;2023-03-03T04:05:10;27.60;;;12.80;;
74541;SDS011;63015;45.378;20.360;2023-03-03T04:07:11;27.23;;;13.48;;
74541;SDS011;63015;45.378;20.360;2023-03-03T04:09:12;32.63;;;14.23;;
74541;SDS011;63015;45.378;20.360;2023-03-03T04:11:13;30.70;;;16.02;;
74541;SDS011;63015;45.378;20.360;2023-03-03T04:13:13;28.15;;;13.65;;
74541;SDS011;63015;45.378;20.360;2023-03-03T04:15:14;28.27;;;12.95;;
74541;SDS011;63015;45.378;20.360;2023-03-03T04:17:18;31.33;;;12.95;;
74541;SDS011;63015;45.378;20.360;2023-03-03T04:19:20;28.75;;;12.52;;
74541;SDS011;63015;45.378;20.360;2023-03-03T04:23:27;26.05;;;12.60;;
74541;SDS011;63015;45.378;20.360;2023-03-03T04:25:28;24.90;;;10.77;;
74541;SDS011;63015;45.378;20.360;2023-03-03T04:27:29;30.35;;;11.82;;
74541;SDS011;63015;45.378;20.360;2023-03-03T04:29:31;26.58;;;12.80;;
74541;SDS011;63015;45.378;20.360;2023-03-03T04:31:32;28.90;;;12.50;;
74541;SDS011;63015;45.378;20.360;2023-03-03T04:33:33;31.90;;;12.63;;
74541;SDS011;63015;45.378;20.360;2023-03-03T04:35:35;27.05;;;12.70;;
74541;SDS011;63015;45.378;20.360;2023-03-03T04:37:37;27.95;;;12.32;;
74541;SDS011;63015;45.378;20.360;2023-03-03T04:39:38;32.40;;;13.30;;
74541;SDS011;63015;45.378;20.360;2023-03-03T04:41:38;32.17;;;13.13;;
74541;SDS011;63015;45.378;20.360;2023-03-03T04:43:39;26.45;;;11.07;;
74541;SDS011;63015;45.378;20.360;2023-03-03T04:45:40;28.73;;;12.35;;
74541;SDS011;63015;45.378;20.360;2023-03-03T04:47:42;26.55;;;12.10;;
74541;SDS011;63015;45.378;20.360;2023-03-03T04:49:43;32.90;;;13.52;;
74541;SDS011;63015;45.378;20.360;2023-03-03T04:51:44;30.90;;;12.75;;
74541;SDS011;63015;45.378;20.360;2023-03-03T04:53:45;32.28;;;13.85;;
74541;SDS011;63015;45.378;20.360;2023-03-03T04:55:50;32.08;;;13.52;;
74541;SDS011;63015;45.378;20.360;2023-03-03T04:57:55;33.75;;;13.27;;
74541;SDS011;63015;45.378;20.360;2023-03-03T04:59:56;28.95;;;13.18;;
74541;SDS011;63015;45.378;20.360;2023-03-03T05:01:57;29.85;;;13.40;;
74541;SDS011;63015;45.378;20.360;2023-03-03T05:03:57;29.58;;;13.43;;
74541;SDS011;63015;45.378;20.360;2023-03-03T05:05:58;29.95;;;13.90;;
74541;SDS011;63015;45.378;20.360;2023-03-03T05:07:59;29.88;;;12.25;;
74541;SDS011;63015;45.378;20.360;2023-03-03T05:09:59;29.75;;;12.25;;
74541;SDS011;63015;45.378;20.360;2023-03-03T05:12:00;30.80;;;12.35;;
74541;SDS011;63015;45.378;20.360;2023-03-03T05:14:00;32.45;;;13.35;;
74541;SDS011;63015;45.378;20.360;2023-03-03T05:16:02;32.00;;;13.77;;
74541;SDS011;63015;45.378;20.360;2023-03-03T05:18:03;25.10;;;10.93;;
74541;SDS011;63015;45.378;20.360;2023-03-03T05:20:04;31.55;;;13.80;;
74541;SDS011;63015;45.378;20.360;2023-03-03T05:24:11;26.38;;;11.60;;
74541;SDS011;63015;45.378;20.360;2023-03-03T05:26:13;28.25;;;11.77;;
74541;SDS011;63015;45.378;20.360;2023-03-03T05:28:14;35.20;;;12.88;;
74541;SDS011;63015;45.378;20.360;2023-03-03T05:30:14;35.83;;;14.32;;
74541;SDS011;63015;45.378;20.360;2023-03-03T05:32:15;34.08;;;13.93;;
74541;SDS011;63015;45.378;20.360;2023-03-03T05:34:15;43.00;;;16.30;;
74541;SDS011;63015;45.378;20.360;2023-03-03T05:36:16;30.90;;;12.15;;
74541;SDS011;63015;45.378;20.360;2023-03-03T05:38:16;30.77;;;14.05;;
74541;SDS011;63015;45.378;20.360;2023-03-03T05:40:17;35.90;;;14.38;;
74541;SDS011;63015;45.378;20.360;2023-03-03T05:42:18;34.17;;;13.75;;
74541;SDS011;63015;45.378;20.360;2023-03-03T05:44:18;33.50;;;13.55;;
74541;SDS011;63015;45.378;20.360;2023-03-03T05:46:19;33.08;;;14.07;;
74541;SDS011;63015;45.378;20.360;2023-03-03T05:48:19;35.40;;;14.52;;
74541;SDS011;63015;45.378;20.360;2023-03-03T05:50:20;34.35;;;13.60;;
74541;SDS011;63015;45.378;20.360;2023-03-03T05:52:23;35.97;;;15.13;;
74541;SDS011;63015;45.378;20.360;2023-03-03T05:54:24;35.22;;;14.57;;
74541;SDS011;63015;45.378;20.360;2023-03-03T05:56:24;36.63;;;15.93;;
74541;SDS011;63015;45.378;20.360;2023-03-03T05:58:25;40.30;;;15.65;;
74541;SDS011;63015;45.378;20.360;2023-03-03T06:00:25;35.28;;;15.88;;
74541;SDS011;63015;45.378;20.360;2023-03-03T06:02:26;35.00;;;14.85;;
74541;SDS011;63015;45.378;20.360;2023-03-03T06:04:26;39.90;;;17.55;;
74541;SDS011;63015;45.378;20.360;2023-03-03T06:06:27;40.97;;;17.73;;
74541;SDS011;63015;45.378;20.360;2023-03-03T06:08:28;50.75;;;20.63;;
74541;SDS011;63015;45.378;20.360;2023-03-03T06:10:29;46.42;;;19.48;;
74541;SDS011;63015;45.378;20.360;2023-03-03T06:14:33;50.83;;;21.83;;
74541;SDS011;63015;45.378;20.360;2023-03-03T06:16:34;47.85;;;19.90;;
74541;SDS011;63015;45.378;20.360;2023-03-03T06:18:34;50.75;;;20.33;;
74541;SDS011;63015;45.378;20.360;2023-03-03T06:20:35;51.65;;;19.80;;
74541;SDS011;63015;45.378;20.360;2023-03-03T06:22:36;45.88;;;17.77;;
74541;SDS011;63015;45.378;20.360;2023-03-03T06:24:36;51.55;;;20.42;;
74541;SDS011;63015;45.378;20.360;2023-03-03T06:26:37;43.08;;;18.77;;
74541;SDS011;63015;45.378;20.360;2023-03-03T06:28:38;46.60;;;18.85;;
74541;SDS011;63015;45.378;20.360;2023-03-03T06:30:39;45.42;;;18.15;;
74541;SDS011;63015;45.378;20.360;2023-03-03T06:32:39;43.33;;;18.67;;
74541;SDS011;63015;45.378;20.360;2023-03-03T06:34:40;63.28;;;24.05;;
74541;SDS011;63015;45.378;20.360;2023-03-03T06:36:40;55.33;;;23.50;;
74541;SDS011;63015;45.378;20.360;2023-03-03T06:38:41;45.55;;;18.88;;
74541;SDS011;63015;45.378;20.360;2023-03-03T06:40:41;50.42;;;22.45;;
74541;SDS011;63015;45.378;20.360;2023-03-03T06:42:42;50.45;;;21.42;;
74541;SDS011;63015;45.378;20.360;2023-03-03T06:44:43;63.25;;;25.27;;
74541;SDS011;63015;45.378;20.360;2023-03-03T06:46:43;55.95;;;23.30;;
74541;SDS011;63015;45.378;20.360;2023-03-03T06:48:44;63.92;;;25.95;;
74541;SDS011;63015;45.378;20.360;2023-03-03T06:50:44;73.90;;;28.60;;
74541;SDS011;63015;45.378;20.360;2023-03-03T06:52:45;82.57;;;31.95;;
74541;SDS011;63015;45.378;20.360;2023-03-03T06:54:45;85.75;;;36.08;;
74541;SDS011;63015;45.378;20.360;2023-03-03T06:56:46;95.50;;;36.10;;
74541;SDS011;63015;45.378;20.360;2023-03-03T06:58:52;90.05;;;33.40;;
74541;SDS011;63015;45.378;20.360;2023-03-03T07:00:59;73.60;;;32.13;;
74541;SDS011;63015;45.378;20.360;2023-03-03T07:03:21;74.97;;;30.80;;
74541;SDS011;63015;45.378;20.360;2023-03-03T07:05:23;80.22;;;32.28;;
74541;SDS011;63015;45.378;20.360;2023-03-03T07:07:27;79.47;;;30.67;;
74541;SDS011;63015;45.378;20.360;2023-03-03T07:09:28;79.93;;;33.35;;
74541;SDS011;63015;45.378;20.360;2023-03-03T07:11:29;118.93;;;44.08;;
74541;SDS011;63015;45.378;20.360;2023-03-03T07:13:30;94.57;;;39.20;;
74541;SDS011;63015;45.378;20.360;2023-03-03T07:15:33;59.88;;;24.95;;
74541;SDS011;63015;45.378;20.360;2023-03-03T07:17:35;59.22;;;25.20;;
74541;SDS011;63015;45.378;20.360;2023-03-03T07:19:42;44.45;;;16.85;;
74541;SDS011;63015;45.378;20.360;2023-03-03T07:21:44;47.90;;;20.77;;
74541;SDS011;63015;45.378;20.360;2023-03-03T07:23:46;58.08;;;23.40;;
74541;SDS011;63015;45.378;20.360;2023-03-03T07:25:51;49.42;;;21.60;;
74541;SDS011;63015;45.378;20.360;2023-03-03T07:27:54;50.00;;;22.77;;
74541;SDS011;63015;45.378;20.360;2023-03-03T07:30:15;45.63;;;20.15;;
74541;SDS011;63015;45.378;20.360;2023-03-03T07:32:33;55.08;;;21.88;;
74541;SDS011;63015;45.378;20.360;2023-03-03T07:34:48;42.95;;;20.70;;
74541;SDS011;63015;45.378;20.360;2023-03-03T07:36:53;39.53;;;17.98;;
74541;SDS011;63015;45.378;20.360;2023-03-03T07:38:59;49.30;;;20.92;;
74541;SDS011;63015;45.378;20.360;2023-03-03T07:41:04;50.10;;;22.80;;
74541;SDS011;63015;45.378;20.360;2023-03-03T07:45:34;41.65;;;18.23;;
74541;SDS011;63015;45.378;20.360;2023-03-03T07:49:37;29.00;;;11.32;;
74541;SDS011;63015;45.378;20.360;2023-03-03T07:51:38;20.92;;;10.48;;
74541;SDS011;63015;45.378;20.360;2023-03-03T07:53:42;46.92;;;18.83;;
74541;SDS011;63015;45.378;20.360;2023-03-03T07:55:43;40.67;;;17.10;;
74541;SDS011;63015;45.378;20.360;2023-03-03T07:57:44;24.70;;;11.00;;
74541;SDS011;63015;45.378;20.360;2023-03-03T08:01:52;38.58;;;17.27;;
74541;SDS011;63015;45.378;20.360;2023-03-03T08:03:55;44.88;;;21.55;;
74541;SDS011;63015;45.378;20.360;2023-03-03T08:05:56;43.70;;;17.88;;
74541;SDS011;63015;45.378;20.360;2023-03-03T08:08:00;45.05;;;19.98;;
74541;SDS011;63015;45.378;20.360;2023-03-03T08:10:27;41.15;;;18.42;;
74541;SDS011;63015;45.378;20.360;2023-03-03T08:12:40;37.58;;;17.63;;
74541;SDS011;63015;45.378;20.360;2023-03-03T08:14:44;25.35;;;11.02;;
74541;SDS011;63015;45.378;20.360;2023-03-03T08:16:45;31.52;;;13.27;;
74541;SDS011;63015;45.378;20.360;2023-03-03T08:18:50;34.60;;;14.43;;
74541;SDS011;63015;45.378;20.360;2023-03-03T08:20:57;34.85;;;15.73;;
74541;SDS011;63015;45.378;20.360;2023-03-03T08:22:59;56.85;;;22.67;;
74541;SDS011;63015;45.378;20.360;2023-03-03T08:24:59;40.30;;;17.25;;
74541;SDS011;63015;45.378;20.360;2023-03-03T08:27:00;45.97;;;19.38;;
74541;SDS011;63015;45.378;20.360;2023-03-03T08:29:00;50.53;;;22.20;;
74541;SDS011;63015;45.378;20.360;2023-03-03T08:31:01;52.42;;;22.73;;
74541;SDS011;63015;45.378;20.360;2023-03-03T08:33:02;44.85;;;20.50;;
74541;SDS011;63015;45.378;20.360;2023-03-03T08:35:02;36.67;;;15.90;;
74541;SDS011;63015;45.378;20.360;2023-03-03T08:37:03;43.95;;;17.73;;
74541;SDS011;63015;45.378;20.360;2023-03-03T08:39:04;44.80;;;19.45;;
74541;SDS011;63015;45.378;20.360;2023-03-03T08:41:06;52.05;;;23.35;;
74541;SDS011;63015;45.378;20.360;2023-03-03T08:43:07;42.63;;;18.58;;
74541;SDS011;63015;45.378;20.360;2023-03-03T08:45:08;40.75;;;17.80;;
74541;SDS011;63015;45.378;20.360;2023-03-03T08:47:08;38.30;;;17.13;;
74541;SDS011;63015;45.378;20.360;2023-03-03T08:49:09;36.25;;;16.25;;
74541;SDS011;63015;45.378;20.360;2023-03-03T08:51:09;33.72;;;15.95;;
74541;SDS011;63015;45.378;20.360;2023-03-03T08:53:10;37.40;;;17.15;;
74541;SDS011;63015;45.378;20.360;2023-03-03T08:55:12;33.47;;;15.48;;
74541;SDS011;63015;45.378;20.360;2023-03-03T08:57:13;35.17;;;17.25;;
74541;SDS011;63015;45.378;20.360;2023-03-03T08:59:14;32.20;;;14.65;;
74541;SDS011;63015;45.378;20.360;2023-03-03T09:01:14;35.67;;;15.50;;
74541;SDS011;63015;45.378;20.360;2023-03-03T09:03:15;35.33;;;16.67;;
74541;SDS011;63015;45.378;20.360;2023-03-03T09:05:16;35.58;;;15.98;;
74541;SDS011;63015;45.378;20.360;2023-03-03T09:07:18;29.95;;;13.25;;
74541;SDS011;63015;45.378;20.360;2023-03-03T09:09:18;28.55;;;13.77;;
74541;SDS011;63015;45.378;20.360;2023-03-03T09:11:28;32.92;;;15.65;;
74541;SDS011;63015;45.378;20.360;2023-03-03T09:13:29;28.15;;;13.80;;
74541;SDS011;63015;45.378;20.360;2023-03-03T09:15:31;24.55;;;12.70;;
74541;SDS011;63015;45.378;20.360;2023-03-03T09:17:33;26.25;;;13.82;;
74541;SDS011;63015;45.378;20.360;2023-03-03T09:19:34;30.48;;;14.35;;
74541;SDS011;63015;45.378;20.360;2023-03-03T09:21:36;31.42;;;14.57;;
74541;SDS011;63015;45.378;20.360;2023-03-03T09:23:38;34.03;;;16.33;;
74541;SDS011;63015;45.378;20.360;2023-03-03T09:25:41;30.80;;;15.15;;
74541;SDS011;63015;45.378;20.360;2023-03-03T09:27:41;29.67;;;14.73;;
74541;SDS011;63015;45.378;20.360;2023-03-03T09:29:42;27.42;;;14.75;;
74541;SDS011;63015;45.378;20.360;2023-03-03T09:33:57;32.47;;;14.70;;
74541;SDS011;63015;45.378;20.360;2023-03-03T09:36:03;25.60;;;13.63;;
74541;SDS011;63015;45.378;20.360;2023-03-03T10:01:13;29.77;;;13.50;;
74541;SDS011;63015;45.378;20.360;2023-03-03T10:03:40;25.75;;;12.68;;
74541;SDS011;63015;45.378;20.360;2023-03-03T10:06:08;24.70;;;12.98;;
74541;SDS011;63015;45.378;20.360;2023-03-03T10:08:17;29.13;;;14.15;;
74541;SDS011;63015;45.378;20.360;2023-03-03T10:10:55;24.83;;;12.15;;
74541;SDS011;63015;45.378;20.360;2023-03-03T10:13:09;21.70;;;10.43;;
74541;SDS011;63015;45.378;20.360;2023-03-03T10:15:24;28.40;;;13.55;;
74541;SDS011;63015;45.378;20.360;2023-03-03T10:22:17;21.98;;;10.45;;
74541;SDS011;63015;45.378;20.360;2023-03-03T10:25:02;27.85;;;13.13;;
74541;SDS011;63015;45.378;20.360;2023-03-03T10:27:52;29.27;;;14.27;;
74541;SDS011;63015;45.378;20.360;2023-03-03T10:31:48;32.05;;;15.75;;
74541;SDS011;63015;45.378;20.360;2023-03-03T10:49:50;30.25;;;15.63;;
74541;SDS011;63015;45.378;20.360;2023-03-03T10:57:06;31.33;;;14.60;;
74541;SDS011;63015;45.378;20.360;2023-03-03T10:59:46;26.92;;;12.88;;
74541;SDS011;63015;45.378;20.360;2023-03-03T11:02:17;30.58;;;15.82;;
74541;SDS011;63015;45.378;20.360;2023-03-03T11:08:51;27.40;;;14.60;;
74541;SDS011;63015;45.378;20.360;2023-03-03T11:11:50;28.63;;;14.05;;
74541;SDS011;63015;45.378;20.360;2023-03-03T11:25:40;26.67;;;13.30;;
74541;SDS011;63015;45.378;20.360;2023-03-03T11:33:06;26.10;;;12.82;;
74541;SDS011;63015;45.378;20.360;2023-03-03T11:34:55;24.83;;;12.85;;
74541;SDS011;63015;45.378;20.360;2023-03-03T11:37:07;28.08;;;13.38;;
74541;SDS011;63015;45.378;20.360;2023-03-03T11:39:15;27.52;;;13.90;;
74541;SDS011;63015;45.378;20.360;2023-03-03T11:41:26;33.50;;;15.68;;
74541;SDS011;63015;45.378;20.360;2023-03-03T11:43:31;34.80;;;15.73;;
74541;SDS011;63015;45.378;20.360;2023-03-03T11:47:42;29.10;;;15.18;;
74541;SDS011;63015;45.378;20.360;2023-03-03T11:50:15;35.95;;;15.55;;
74541;SDS011;63015;45.378;20.360;2023-03-03T11:55:04;29.70;;;14.10;;
74541;SDS011;63015;45.378;20.360;2023-03-03T11:57:19;29.02;;;16.23;;
74541;SDS011;63015;45.378;20.360;2023-03-03T11:59:30;29.50;;;15.05;;
74541;SDS011;63015;45.378;20.360;2023-03-03T12:01:41;29.05;;;14.15;;
74541;SDS011;63015;45.378;20.360;2023-03-03T12:04:04;26.48;;;13.60;;
74541;SDS011;63015;45.378;20.360;2023-03-03T12:16:23;23.17;;;11.38;;
74541;SDS011;63015;45.378;20.360;2023-03-03T12:18:34;18.60;;;7.90;;
74541;SDS011;63015;45.378;20.360;2023-03-03T12:20:59;26.58;;;14.30;;
74541;SDS011;63015;45.378;20.360;2023-03-03T12:23:19;27.27;;;13.43;;
74541;SDS011;63015;45.378;20.360;2023-03-03T12:25:44;30.17;;;13.35;;
74541;SDS011;63015;45.378;20.360;2023-03-03T12:27:55;29.55;;;14.75;;
74541;SDS011;63015;45.378;20.360;2023-03-03T12:30:09;24.80;;;12.32;;
74541;SDS011;63015;45.378;20.360;2023-03-03T12:35:04;25.67;;;12.73;;
74541;SDS011;63015;45.378;20.360;2023-03-03T12:40:09;32.17;;;13.45;;
74541;SDS011;63015;45.378;20.360;2023-03-03T12:44:22;28.33;;;14.02;;
74541;SDS011;63015;45.378;20.360;2023-03-03T12:48:45;30.80;;;13.68;;
74541;SDS011;63015;45.378;20.360;2023-03-03T12:51:01;28.55;;;13.52;;
74541;SDS011;63015;45.378;20.360;2023-03-03T13:05:23;24.23;;;13.27;;
74541;SDS011;63015;45.378;20.360;2023-03-03T13:12:30;23.15;;;11.98;;
74541;SDS011;63015;45.378;20.360;2023-03-03T13:17:22;19.92;;;9.13;;
74541;SDS011;63015;45.378;20.360;2023-03-03T13:19:26;15.50;;;6.90;;
74541;SDS011;63015;45.378;20.360;2023-03-03T13:21:42;20.95;;;10.70;;
74541;SDS011;63015;45.378;20.360;2023-03-03T13:31:32;24.02;;;10.75;;
74541;SDS011;63015;45.378;20.360;2023-03-03T13:33:36;29.45;;;11.18;;
74541;SDS011;63015;45.378;20.360;2023-03-03T13:35:42;26.85;;;12.20;;
74541;SDS011;63015;45.378;20.360;2023-03-03T13:37:45;30.15;;;12.95;;
74541;SDS011;63015;45.378;20.360;2023-03-03T13:44:40;24.17;;;12.25;;
74541;SDS011;63015;45.378;20.360;2023-03-03T13:46:48;28.33;;;13.48;;
74541;SDS011;63015;45.378;20.360;2023-03-03T13:51:15;31.08;;;13.13;;
74541;SDS011;63015;45.378;20.360;2023-03-03T13:53:38;22.52;;;11.13;;
74541;SDS011;63015;45.378;20.360;2023-03-03T13:56:04;27.95;;;13.93;;
74541;SDS011;63015;45.378;20.360;2023-03-03T14:03:02;25.42;;;12.90;;
74541;SDS011;63015;45.378;20.360;2023-03-03T14:08:09;24.27;;;11.60;;
74541;SDS011;63015;45.378;20.360;2023-03-03T14:21:06;24.75;;;13.07;;
74541;SDS011;63015;45.378;20.360;2023-03-03T14:25:49;21.48;;;11.07;;
74541;SDS011;63015;45.378;20.360;2023-03-03T14:28:09;23.77;;;12.07;;
74541;SDS011;63015;45.378;20.360;2023-03-03T14:32:24;23.38;;;11.75;;
74541;SDS011;63015;45.378;20.360;2023-03-03T14:34:37;24.42;;;10.98;;
74541;SDS011;63015;45.378;20.360;2023-03-03T14:36:39;23.17;;;12.10;;
74541;SDS011;63015;45.378;20.360;2023-03-03T14:38:43;23.33;;;11.75;;
74541;SDS011;63015;45.378;20.360;2023-03-03T14:40:46;25.25;;;10.60;;
74541;SDS011;63015;45.378;20.360;2023-03-03T14:44:53;24.08;;;11.63;;
74541;SDS011;63015;45.378;20.360;2023-03-03T14:49:13;24.10;;;11.88;;
74541;SDS011;63015;45.378;20.360;2023-03-03T14:51:43;22.35;;;10.93;;
74541;SDS011;63015;45.378;20.360;2023-03-03T14:53:46;23.10;;;11.93;;
74541;SDS011;63015;45.378;20.360;2023-03-03T14:55:50;23.58;;;11.68;;
74541;SDS011;63015;45.378;20.360;2023-03-03T14:57:52;26.27;;;12.88;;
74541;SDS011;63015;45.378;20.360;2023-03-03T15:06:29;22.45;;;10.73;;
74541;SDS011;63015;45.378;20.360;2023-03-03T15:08:35;26.67;;;11.35;;
74541;SDS011;63015;45.378;20.360;2023-03-03T15:12:40;25.42;;;12.30;;
74541;SDS011;63015;45.378;20.360;2023-03-03T15:14:45;25.35;;;12.70;;